首页
METAR-TAF:

METAR-TAF

机场 :

莫吉廖夫機場

莫吉廖夫, 白俄罗斯

纬度: 53-57-18N, 经度: 030-05-42E, 海拔: 194米

当前天气观测

该预报发布于9小时和3分钟前的13:00 UTC
风速14节,风向南转南东,有时为19节阵风
温度 1°C
湿度 86%
气压 1006 hPa
能見度: 6000
阴天层高于900英尺

METAR: UMOO 141300Z 15007G10MPS 6000 OVC009 01/M01 Q1006 NOSIG

时间: 01:03 (22:03 UTC)

预报

该预报发布于11小时和1分钟前的11:02 UTC
预报有效从14日的 12点(UTC)到 14日的 21点(UTC)
风速14节,风向南转南东,有时为23节阵风
能見度: 5000
阴天层高于800英尺
轻雾
短暂存在
从 14日的 12点(UTC)到 14日的 15点(UTC)
能見度: 2100
阴天层高于500英尺
小毛毛雨, 轻雾
短暂存在
从 14日的 15点(UTC)到 14日的 21点(UTC)
风速16节,风向南转南东,有时为25节阵风
能見度: 1200
阴天层高于300英尺
多云层高于1500英尺, 积雨云.
阵雪, 雨, 轻雾

TAF: UMOO 141102Z 1412/1421 15007G12MPS 5000 BR OVC008 TEMPO 1412/1415 2100 -DZ BR OVC005 TEMPO 1415/1421 16008G13MPS 1200 SHSNRA BR OVC003 BKN015CB

超过4000个机场的气象观测和天气预报(METAR&TAF报告)。

可查询的气象台以黄色和红色小点在地图上表示。

将鼠标移到小点上方,可查看气象台名称。

然后点击查看天气观测和预报。

如需切换地图:点击带黑十字的绿色按钮放大地图;点击带横线的绿色按钮缩小地图;或者点击绿色箭头查看邻近地区的地图。


METAR-TAF: